sensor_id;sensor_type;location;lat;lon;timestamp;P1;durP1;ratioP1;P2;durP2;ratioP2
27213;SDS011;14723;55.814;37.460;2023-07-20T00:00:36;3.78;;;1.70;;
27213;SDS011;14723;55.814;37.460;2023-07-20T00:03:44;7.38;;;2.17;;
27213;SDS011;14723;55.814;37.460;2023-07-20T00:06:57;3.17;;;1.60;;
27213;SDS011;14723;55.814;37.460;2023-07-20T00:10:03;3.15;;;1.65;;
27213;SDS011;14723;55.814;37.460;2023-07-20T00:13:08;4.07;;;1.63;;
27213;SDS011;14723;55.814;37.460;2023-07-20T00:16:14;2.72;;;1.52;;
27213;SDS011;14723;55.814;37.460;2023-07-20T00:19:22;5.38;;;1.63;;
27213;SDS011;14723;55.814;37.460;2023-07-20T00:22:27;3.00;;;1.15;;
27213;SDS011;14723;55.814;37.460;2023-07-20T00:25:33;4.15;;;1.50;;
27213;SDS011;14723;55.814;37.460;2023-07-20T00:28:38;2.35;;;1.80;;
27213;SDS011;14723;55.814;37.460;2023-07-20T00:31:44;3.97;;;1.38;;
27213;SDS011;14723;55.814;37.460;2023-07-20T00:38:03;6.00;;;1.37;;
27213;SDS011;14723;55.814;37.460;2023-07-20T00:41:08;4.38;;;1.77;;
27213;SDS011;14723;55.814;37.460;2023-07-20T00:44:15;6.22;;;1.60;;
27213;SDS011;14723;55.814;37.460;2023-07-20T00:47:20;7.10;;;1.50;;
27213;SDS011;14723;55.814;37.460;2023-07-20T00:50:26;3.20;;;1.73;;
27213;SDS011;14723;55.814;37.460;2023-07-20T00:53:35;3.40;;;1.52;;
27213;SDS011;14723;55.814;37.460;2023-07-20T00:56:41;3.63;;;1.60;;
27213;SDS011;14723;55.814;37.460;2023-07-20T00:59:47;4.18;;;1.80;;
27213;SDS011;14723;55.814;37.460;2023-07-20T01:02:53;6.72;;;1.70;;
27213;SDS011;14723;55.814;37.460;2023-07-20T01:06:00;4.15;;;1.70;;
27213;SDS011;14723;55.814;37.460;2023-07-20T01:09:11;3.28;;;1.55;;
27213;SDS011;14723;55.814;37.460;2023-07-20T01:12:20;7.50;;;2.17;;
27213;SDS011;14723;55.814;37.460;2023-07-20T01:15:28;3.50;;;1.70;;
27213;SDS011;14723;55.814;37.460;2023-07-20T01:18:34;4.28;;;1.95;;
27213;SDS011;14723;55.814;37.460;2023-07-20T01:21:41;2.90;;;1.27;;
27213;SDS011;14723;55.814;37.460;2023-07-20T01:24:57;4.45;;;1.63;;
27213;SDS011;14723;55.814;37.460;2023-07-20T01:31:33;3.80;;;1.77;;
27213;SDS011;14723;55.814;37.460;2023-07-20T01:34:40;8.43;;;2.10;;
27213;SDS011;14723;55.814;37.460;2023-07-20T01:37:46;4.18;;;1.63;;
27213;SDS011;14723;55.814;37.460;2023-07-20T01:40:51;4.53;;;1.67;;
27213;SDS011;14723;55.814;37.460;2023-07-20T01:43:57;2.22;;;1.40;;
27213;SDS011;14723;55.814;37.460;2023-07-20T01:47:06;10.10;;;2.53;;
27213;SDS011;14723;55.814;37.460;2023-07-20T01:50:11;3.60;;;1.67;;
27213;SDS011;14723;55.814;37.460;2023-07-20T01:53:17;1.52;;;1.33;;
27213;SDS011;14723;55.814;37.460;2023-07-20T01:56:22;6.38;;;1.65;;
27213;SDS011;14723;55.814;37.460;2023-07-20T01:59:27;4.05;;;1.70;;
27213;SDS011;14723;55.814;37.460;2023-07-20T02:02:35;8.13;;;1.60;;
27213;SDS011;14723;55.814;37.460;2023-07-20T02:05:42;3.60;;;1.42;;
27213;SDS011;14723;55.814;37.460;2023-07-20T02:08:47;3.30;;;1.60;;
27213;SDS011;14723;55.814;37.460;2023-07-20T02:11:53;3.13;;;1.30;;
27213;SDS011;14723;55.814;37.460;2023-07-20T02:14:59;5.20;;;1.88;;
27213;SDS011;14723;55.814;37.460;2023-07-20T02:18:07;1.70;;;1.33;;
27213;SDS011;14723;55.814;37.460;2023-07-20T02:21:12;2.63;;;1.50;;
27213;SDS011;14723;55.814;37.460;2023-07-20T02:24:18;8.20;;;1.90;;
27213;SDS011;14723;55.814;37.460;2023-07-20T02:27:24;3.05;;;1.73;;
27213;SDS011;14723;55.814;37.460;2023-07-20T02:30:29;5.70;;;1.60;;
27213;SDS011;14723;55.814;37.460;2023-07-20T02:33:38;4.20;;;1.55;;
27213;SDS011;14723;55.814;37.460;2023-07-20T02:36:43;6.28;;;1.73;;
27213;SDS011;14723;55.814;37.460;2023-07-20T02:39:50;5.32;;;1.58;;
27213;SDS011;14723;55.814;37.460;2023-07-20T02:42:56;2.65;;;1.65;;
27213;SDS011;14723;55.814;37.460;2023-07-20T02:46:01;3.00;;;1.95;;
27213;SDS011;14723;55.814;37.460;2023-07-20T02:49:09;3.25;;;1.48;;
27213;SDS011;14723;55.814;37.460;2023-07-20T02:52:15;1.95;;;1.30;;
27213;SDS011;14723;55.814;37.460;2023-07-20T02:55:23;6.18;;;1.58;;
27213;SDS011;14723;55.814;37.460;2023-07-20T02:58:29;5.53;;;1.30;;
27213;SDS011;14723;55.814;37.460;2023-07-20T03:01:34;2.72;;;1.50;;
27213;SDS011;14723;55.814;37.460;2023-07-20T03:04:42;4.03;;;1.40;;
27213;SDS011;14723;55.814;37.460;2023-07-20T03:07:48;3.47;;;1.23;;
27213;SDS011;14723;55.814;37.460;2023-07-20T03:10:54;3.70;;;1.63;;
27213;SDS011;14723;55.814;37.460;2023-07-20T03:14:00;2.70;;;1.25;;
27213;SDS011;14723;55.814;37.460;2023-07-20T03:17:06;6.13;;;1.63;;
27213;SDS011;14723;55.814;37.460;2023-07-20T03:20:14;2.03;;;1.20;;
27213;SDS011;14723;55.814;37.460;2023-07-20T03:26:25;4.28;;;1.38;;
27213;SDS011;14723;55.814;37.460;2023-07-20T03:29:31;4.03;;;1.30;;
27213;SDS011;14723;55.814;37.460;2023-07-20T03:32:37;4.93;;;1.30;;
27213;SDS011;14723;55.814;37.460;2023-07-20T03:35:45;2.92;;;1.50;;
27213;SDS011;14723;55.814;37.460;2023-07-20T03:38:50;4.10;;;1.40;;
27213;SDS011;14723;55.814;37.460;2023-07-20T03:41:55;5.93;;;1.63;;
27213;SDS011;14723;55.814;37.460;2023-07-20T03:45:02;3.00;;;1.58;;
27213;SDS011;14723;55.814;37.460;2023-07-20T03:48:08;5.10;;;1.52;;
27213;SDS011;14723;55.814;37.460;2023-07-20T03:51:16;8.98;;;1.70;;
27213;SDS011;14723;55.814;37.460;2023-07-20T03:54:21;6.07;;;1.85;;
27213;SDS011;14723;55.814;37.460;2023-07-20T03:57:26;5.25;;;1.48;;
27213;SDS011;14723;55.814;37.460;2023-07-20T04:00:34;5.23;;;1.33;;
27213;SDS011;14723;55.814;37.460;2023-07-20T04:03:39;3.05;;;1.38;;
27213;SDS011;14723;55.814;37.460;2023-07-20T04:06:52;2.65;;;1.30;;
27213;SDS011;14723;55.814;37.460;2023-07-20T04:10:02;4.28;;;1.27;;
27213;SDS011;14723;55.814;37.460;2023-07-20T04:13:09;2.67;;;1.42;;
27213;SDS011;14723;55.814;37.460;2023-07-20T04:16:15;5.03;;;1.30;;
27213;SDS011;14723;55.814;37.460;2023-07-20T04:19:22;4.10;;;1.25;;
27213;SDS011;14723;55.814;37.460;2023-07-20T04:22:30;3.83;;;0.98;;
27213;SDS011;14723;55.814;37.460;2023-07-20T04:25:38;2.55;;;1.45;;
27213;SDS011;14723;55.814;37.460;2023-07-20T04:28:46;2.08;;;1.08;;
27213;SDS011;14723;55.814;37.460;2023-07-20T04:32:06;2.45;;;1.00;;
27213;SDS011;14723;55.814;37.460;2023-07-20T04:35:17;2.90;;;1.20;;
27213;SDS011;14723;55.814;37.460;2023-07-20T04:38:26;4.82;;;1.50;;
27213;SDS011;14723;55.814;37.460;2023-07-20T04:44:47;4.70;;;1.20;;
27213;SDS011;14723;55.814;37.460;2023-07-20T04:47:53;5.45;;;1.35;;
27213;SDS011;14723;55.814;37.460;2023-07-20T04:50:59;2.72;;;1.20;;
27213;SDS011;14723;55.814;37.460;2023-07-20T04:54:07;2.20;;;1.30;;
27213;SDS011;14723;55.814;37.460;2023-07-20T04:57:14;9.75;;;3.10;;
27213;SDS011;14723;55.814;37.460;2023-07-20T05:03:27;3.22;;;1.42;;
27213;SDS011;14723;55.814;37.460;2023-07-20T05:06:33;4.60;;;1.90;;
27213;SDS011;14723;55.814;37.460;2023-07-20T05:09:41;2.97;;;1.30;;
27213;SDS011;14723;55.814;37.460;2023-07-20T05:12:47;2.65;;;1.70;;
27213;SDS011;14723;55.814;37.460;2023-07-20T05:15:52;2.83;;;1.20;;
27213;SDS011;14723;55.814;37.460;2023-07-20T05:18:57;2.72;;;1.00;;
27213;SDS011;14723;55.814;37.460;2023-07-20T05:22:03;4.28;;;1.45;;
27213;SDS011;14723;55.814;37.460;2023-07-20T05:25:11;3.13;;;1.23;;
27213;SDS011;14723;55.814;37.460;2023-07-20T05:28:19;4.05;;;1.42;;
27213;SDS011;14723;55.814;37.460;2023-07-20T05:31:25;3.88;;;1.17;;
27213;SDS011;14723;55.814;37.460;2023-07-20T05:34:32;2.75;;;1.25;;
27213;SDS011;14723;55.814;37.460;2023-07-20T05:37:38;3.33;;;1.40;;
27213;SDS011;14723;55.814;37.460;2023-07-20T05:40:46;4.13;;;1.25;;
27213;SDS011;14723;55.814;37.460;2023-07-20T05:43:52;2.20;;;1.02;;
27213;SDS011;14723;55.814;37.460;2023-07-20T05:46:57;2.13;;;1.00;;
27213;SDS011;14723;55.814;37.460;2023-07-20T05:50:03;2.88;;;1.77;;
27213;SDS011;14723;55.814;37.460;2023-07-20T05:53:08;2.70;;;1.20;;
27213;SDS011;14723;55.814;37.460;2023-07-20T05:56:16;5.03;;;1.30;;
27213;SDS011;14723;55.814;37.460;2023-07-20T05:59:22;3.00;;;1.08;;
27213;SDS011;14723;55.814;37.460;2023-07-20T06:02:30;3.90;;;1.30;;
27213;SDS011;14723;55.814;37.460;2023-07-20T06:05:35;4.38;;;1.20;;
27213;SDS011;14723;55.814;37.460;2023-07-20T06:08:41;5.00;;;1.02;;
27213;SDS011;14723;55.814;37.460;2023-07-20T06:11:49;4.10;;;1.45;;
27213;SDS011;14723;55.814;37.460;2023-07-20T06:14:55;6.50;;;1.10;;
27213;SDS011;14723;55.814;37.460;2023-07-20T06:18:00;2.67;;;1.35;;
27213;SDS011;14723;55.814;37.460;2023-07-20T06:21:06;6.28;;;1.20;;
27213;SDS011;14723;55.814;37.460;2023-07-20T06:24:11;1.23;;;0.73;;
27213;SDS011;14723;55.814;37.460;2023-07-20T06:27:19;6.15;;;1.00;;
27213;SDS011;14723;55.814;37.460;2023-07-20T06:30:24;2.15;;;0.85;;
27213;SDS011;14723;55.814;37.460;2023-07-20T06:33:30;2.38;;;1.00;;
27213;SDS011;14723;55.814;37.460;2023-07-20T06:36:36;5.00;;;1.20;;
27213;SDS011;14723;55.814;37.460;2023-07-20T06:39:42;2.80;;;0.93;;
27213;SDS011;14723;55.814;37.460;2023-07-20T06:46:01;7.70;;;3.10;;
27213;SDS011;14723;55.814;37.460;2023-07-20T06:49:06;2.25;;;0.75;;
27213;SDS011;14723;55.814;37.460;2023-07-20T06:52:15;3.00;;;0.90;;
27213;SDS011;14723;55.814;37.460;2023-07-20T06:55:21;2.53;;;1.05;;
27213;SDS011;14723;55.814;37.460;2023-07-20T06:58:26;2.22;;;0.90;;
27213;SDS011;14723;55.814;37.460;2023-07-20T07:01:34;2.05;;;1.00;;
27213;SDS011;14723;55.814;37.460;2023-07-20T07:04:39;4.70;;;1.35;;
27213;SDS011;14723;55.814;37.460;2023-07-20T07:07:45;1.63;;;0.88;;
27213;SDS011;14723;55.814;37.460;2023-07-20T07:10:51;3.25;;;1.23;;
27213;SDS011;14723;55.814;37.460;2023-07-20T07:13:57;4.38;;;0.98;;
27213;SDS011;14723;55.814;37.460;2023-07-20T07:17:05;8.00;;;1.77;;
27213;SDS011;14723;55.814;37.460;2023-07-20T07:20:12;2.60;;;0.90;;
27213;SDS011;14723;55.814;37.460;2023-07-20T07:23:20;5.63;;;0.93;;
27213;SDS011;14723;55.814;37.460;2023-07-20T07:26:26;3.38;;;0.85;;
27213;SDS011;14723;55.814;37.460;2023-07-20T07:29:31;2.92;;;1.00;;
27213;SDS011;14723;55.814;37.460;2023-07-20T07:32:39;8.80;;;1.10;;
27213;SDS011;14723;55.814;37.460;2023-07-20T07:35:45;3.28;;;1.20;;
27213;SDS011;14723;55.814;37.460;2023-07-20T07:38:51;2.20;;;1.20;;
27213;SDS011;14723;55.814;37.460;2023-07-20T07:45:04;4.85;;;1.00;;
27213;SDS011;14723;55.814;37.460;2023-07-20T07:48:12;10.63;;;1.90;;
27213;SDS011;14723;55.814;37.460;2023-07-20T07:51:17;5.22;;;1.10;;
27213;SDS011;14723;55.814;37.460;2023-07-20T07:54:23;2.78;;;1.00;;
27213;SDS011;14723;55.814;37.460;2023-07-20T07:57:28;3.17;;;0.90;;
27213;SDS011;14723;55.814;37.460;2023-07-20T08:00:33;2.92;;;0.93;;
27213;SDS011;14723;55.814;37.460;2023-07-20T08:03:41;3.90;;;1.23;;
27213;SDS011;14723;55.814;37.460;2023-07-20T08:06:49;3.63;;;1.23;;
27213;SDS011;14723;55.814;37.460;2023-07-20T08:09:55;6.07;;;1.00;;
27213;SDS011;14723;55.814;37.460;2023-07-20T08:13:01;5.40;;;1.15;;
27213;SDS011;14723;55.814;37.460;2023-07-20T08:16:07;3.38;;;1.02;;
27213;SDS011;14723;55.814;37.460;2023-07-20T08:19:15;3.58;;;1.33;;
27213;SDS011;14723;55.814;37.460;2023-07-20T08:22:20;3.65;;;1.20;;
27213;SDS011;14723;55.814;37.460;2023-07-20T08:25:25;4.93;;;1.23;;
27213;SDS011;14723;55.814;37.460;2023-07-20T08:28:31;5.28;;;1.30;;
27213;SDS011;14723;55.814;37.460;2023-07-20T08:31:36;6.20;;;1.50;;
27213;SDS011;14723;55.814;37.460;2023-07-20T08:34:44;2.80;;;0.90;;
27213;SDS011;14723;55.814;37.460;2023-07-20T08:37:49;5.35;;;1.60;;
27213;SDS011;14723;55.814;37.460;2023-07-20T08:40:57;4.70;;;1.45;;
27213;SDS011;14723;55.814;37.460;2023-07-20T08:44:06;2.47;;;1.17;;
27213;SDS011;14723;55.814;37.460;2023-07-20T08:47:12;2.28;;;1.20;;
27213;SDS011;14723;55.814;37.460;2023-07-20T08:50:21;3.00;;;0.88;;
27213;SDS011;14723;55.814;37.460;2023-07-20T08:53:30;5.50;;;1.25;;
27213;SDS011;14723;55.814;37.460;2023-07-20T08:56:36;3.72;;;1.30;;
27213;SDS011;14723;55.814;37.460;2023-07-20T08:59:42;5.18;;;1.33;;
27213;SDS011;14723;55.814;37.460;2023-07-20T09:02:49;8.00;;;1.50;;
27213;SDS011;14723;55.814;37.460;2023-07-20T09:05:58;7.10;;;1.63;;
27213;SDS011;14723;55.814;37.460;2023-07-20T09:09:06;6.97;;;1.63;;
27213;SDS011;14723;55.814;37.460;2023-07-20T09:12:13;3.72;;;1.48;;
27213;SDS011;14723;55.814;37.460;2023-07-20T09:15:19;4.47;;;1.73;;
27213;SDS011;14723;55.814;37.460;2023-07-20T09:18:25;3.03;;;1.35;;
27213;SDS011;14723;55.814;37.460;2023-07-20T09:21:33;9.13;;;1.55;;
27213;SDS011;14723;55.814;37.460;2023-07-20T09:24:38;3.47;;;1.20;;
27213;SDS011;14723;55.814;37.460;2023-07-20T09:27:46;2.53;;;1.00;;
27213;SDS011;14723;55.814;37.460;2023-07-20T09:30:54;6.90;;;1.50;;
27213;SDS011;14723;55.814;37.460;2023-07-20T09:33:59;5.50;;;1.52;;
27213;SDS011;14723;55.814;37.460;2023-07-20T09:37:08;5.50;;;1.48;;
27213;SDS011;14723;55.814;37.460;2023-07-20T09:43:20;4.05;;;1.30;;
27213;SDS011;14723;55.814;37.460;2023-07-20T09:46:40;1.77;;;1.40;;
27213;SDS011;14723;55.814;37.460;2023-07-20T09:49:48;3.08;;;1.95;;
27213;SDS011;14723;55.814;37.460;2023-07-20T09:52:59;3.25;;;1.38;;
27213;SDS011;14723;55.814;37.460;2023-07-20T09:56:08;2.47;;;1.38;;
27213;SDS011;14723;55.814;37.460;2023-07-20T09:59:18;2.45;;;1.25;;
27213;SDS011;14723;55.814;37.460;2023-07-20T10:02:25;6.38;;;1.92;;
27213;SDS011;14723;55.814;37.460;2023-07-20T10:05:31;5.57;;;1.50;;
27213;SDS011;14723;55.814;37.460;2023-07-20T10:08:41;4.13;;;1.85;;
27213;SDS011;14723;55.814;37.460;2023-07-20T10:11:50;6.95;;;2.50;;
27213;SDS011;14723;55.814;37.460;2023-07-20T10:15:17;5.10;;;1.85;;
27213;SDS011;14723;55.814;37.460;2023-07-20T10:18:25;5.80;;;1.55;;
27213;SDS011;14723;55.814;37.460;2023-07-20T10:21:33;3.03;;;1.48;;
27213;SDS011;14723;55.814;37.460;2023-07-20T10:24:46;4.72;;;1.52;;
27213;SDS011;14723;55.814;37.460;2023-07-20T10:27:52;3.10;;;1.60;;
27213;SDS011;14723;55.814;37.460;2023-07-20T10:30:58;3.03;;;1.50;;
27213;SDS011;14723;55.814;37.460;2023-07-20T10:34:03;3.78;;;2.05;;
27213;SDS011;14723;55.814;37.460;2023-07-20T10:37:09;3.85;;;1.40;;
27213;SDS011;14723;55.814;37.460;2023-07-20T10:40:30;3.08;;;1.67;;
27213;SDS011;14723;55.814;37.460;2023-07-20T10:43:36;3.67;;;1.48;;
27213;SDS011;14723;55.814;37.460;2023-07-20T10:46:42;3.72;;;1.70;;
27213;SDS011;14723;55.814;37.460;2023-07-20T10:49:58;4.15;;;1.48;;
27213;SDS011;14723;55.814;37.460;2023-07-20T10:53:09;3.85;;;2.58;;
27213;SDS011;14723;55.814;37.460;2023-07-20T10:56:19;3.13;;;2.22;;
27213;SDS011;14723;55.814;37.460;2023-07-20T10:59:36;4.22;;;1.85;;
27213;SDS011;14723;55.814;37.460;2023-07-20T11:02:45;4.65;;;2.10;;
27213;SDS011;14723;55.814;37.460;2023-07-20T11:05:53;3.63;;;1.90;;
27213;SDS011;14723;55.814;37.460;2023-07-20T11:09:08;4.45;;;2.17;;
27213;SDS011;14723;55.814;37.460;2023-07-20T11:12:21;7.00;;;1.73;;
27213;SDS011;14723;55.814;37.460;2023-07-20T11:15:27;2.97;;;1.75;;
27213;SDS011;14723;55.814;37.460;2023-07-20T11:18:49;3.45;;;1.50;;
27213;SDS011;14723;55.814;37.460;2023-07-20T11:21:56;5.32;;;1.58;;
27213;SDS011;14723;55.814;37.460;2023-07-20T11:25:06;2.95;;;1.70;;
27213;SDS011;14723;55.814;37.460;2023-07-20T11:28:17;2.10;;;1.50;;
27213;SDS011;14723;55.814;37.460;2023-07-20T11:31:23;2.40;;;1.48;;
27213;SDS011;14723;55.814;37.460;2023-07-20T11:34:29;2.72;;;1.60;;
27213;SDS011;14723;55.814;37.460;2023-07-20T11:37:35;3.85;;;1.80;;
27213;SDS011;14723;55.814;37.460;2023-07-20T11:40:42;2.72;;;1.67;;
27213;SDS011;14723;55.814;37.460;2023-07-20T11:43:50;3.78;;;1.88;;
27213;SDS011;14723;55.814;37.460;2023-07-20T11:47:02;3.30;;;1.95;;
27213;SDS011;14723;55.814;37.460;2023-07-20T11:50:08;2.70;;;1.67;;
27213;SDS011;14723;55.814;37.460;2023-07-20T11:53:16;5.40;;;1.67;;
27213;SDS011;14723;55.814;37.460;2023-07-20T11:56:22;5.07;;;1.30;;
27213;SDS011;14723;55.814;37.460;2023-07-20T11:59:30;3.15;;;1.30;;
27213;SDS011;14723;55.814;37.460;2023-07-20T12:02:36;1.40;;;1.20;;
27213;SDS011;14723;55.814;37.460;2023-07-20T12:05:42;3.38;;;1.40;;
27213;SDS011;14723;55.814;37.460;2023-07-20T12:09:03;2.95;;;1.10;;
27213;SDS011;14723;55.814;37.460;2023-07-20T12:12:09;2.67;;;1.63;;
27213;SDS011;14723;55.814;37.460;2023-07-20T12:15:19;2.72;;;1.35;;
27213;SDS011;14723;55.814;37.460;2023-07-20T12:18:34;5.63;;;1.45;;
27213;SDS011;14723;55.814;37.460;2023-07-20T12:21:40;2.35;;;1.42;;
27213;SDS011;14723;55.814;37.460;2023-07-20T12:24:45;2.60;;;1.67;;
27213;SDS011;14723;55.814;37.460;2023-07-20T12:27:51;3.22;;;1.50;;
27213;SDS011;14723;55.814;37.460;2023-07-20T12:30:58;3.42;;;1.63;;
27213;SDS011;14723;55.814;37.460;2023-07-20T12:34:04;3.22;;;1.55;;
27213;SDS011;14723;55.814;37.460;2023-07-20T12:37:10;3.20;;;1.63;;
27213;SDS011;14723;55.814;37.460;2023-07-20T12:40:15;2.55;;;1.45;;
27213;SDS011;14723;55.814;37.460;2023-07-20T12:43:22;5.90;;;1.70;;
27213;SDS011;14723;55.814;37.460;2023-07-20T12:46:31;4.00;;;1.23;;
27213;SDS011;14723;55.814;37.460;2023-07-20T12:49:38;4.78;;;1.75;;
27213;SDS011;14723;55.814;37.460;2023-07-20T12:52:47;2.47;;;1.63;;
27213;SDS011;14723;55.814;37.460;2023-07-20T12:55:52;2.33;;;1.50;;
27213;SDS011;14723;55.814;37.460;2023-07-20T12:58:58;3.65;;;1.55;;
27213;SDS011;14723;55.814;37.460;2023-07-20T13:02:07;2.45;;;1.55;;
27213;SDS011;14723;55.814;37.460;2023-07-20T13:05:13;4.78;;;1.48;;
27213;SDS011;14723;55.814;37.460;2023-07-20T13:08:19;7.13;;;1.70;;
27213;SDS011;14723;55.814;37.460;2023-07-20T13:11:27;3.08;;;1.58;;
27213;SDS011;14723;55.814;37.460;2023-07-20T13:14:33;2.70;;;1.30;;
27213;SDS011;14723;55.814;37.460;2023-07-20T13:17:41;3.58;;;1.70;;
27213;SDS011;14723;55.814;37.460;2023-07-20T13:20:46;2.83;;;1.25;;
27213;SDS011;14723;55.814;37.460;2023-07-20T13:23:52;5.03;;;2.00;;
27213;SDS011;14723;55.814;37.460;2023-07-20T13:26:57;3.05;;;1.50;;
27213;SDS011;14723;55.814;37.460;2023-07-20T13:30:02;2.30;;;1.48;;
27213;SDS011;14723;55.814;37.460;2023-07-20T13:33:14;2.67;;;1.40;;
27213;SDS011;14723;55.814;37.460;2023-07-20T13:36:20;4.55;;;1.45;;
27213;SDS011;14723;55.814;37.460;2023-07-20T13:39:25;4.35;;;1.73;;
27213;SDS011;14723;55.814;37.460;2023-07-20T13:42:31;3.25;;;1.67;;
27213;SDS011;14723;55.814;37.460;2023-07-20T13:45:37;4.00;;;1.63;;
27213;SDS011;14723;55.814;37.460;2023-07-20T13:48:45;7.13;;;1.70;;
27213;SDS011;14723;55.814;37.460;2023-07-20T13:51:56;7.80;;;1.85;;
27213;SDS011;14723;55.814;37.460;2023-07-20T13:55:05;4.10;;;1.52;;
27213;SDS011;14723;55.814;37.460;2023-07-20T13:58:10;6.20;;;1.42;;
27213;SDS011;14723;55.814;37.460;2023-07-20T14:01:16;2.53;;;1.60;;
27213;SDS011;14723;55.814;37.460;2023-07-20T14:07:31;3.08;;;1.58;;
27213;SDS011;14723;55.814;37.460;2023-07-20T14:16:50;3.78;;;1.50;;
27213;SDS011;14723;55.814;37.460;2023-07-20T14:19:55;4.30;;;1.52;;
27213;SDS011;14723;55.814;37.460;2023-07-20T14:23:03;5.35;;;1.70;;
27213;SDS011;14723;55.814;37.460;2023-07-20T14:29:13;4.72;;;1.80;;
27213;SDS011;14723;55.814;37.460;2023-07-20T14:32:20;5.90;;;2.05;;
27213;SDS011;14723;55.814;37.460;2023-07-20T14:35:28;9.65;;;1.67;;
27213;SDS011;14723;55.814;37.460;2023-07-20T14:38:36;4.15;;;1.80;;
27213;SDS011;14723;55.814;37.460;2023-07-20T14:41:42;5.90;;;2.00;;
27213;SDS011;14723;55.814;37.460;2023-07-20T14:44:48;3.67;;;1.85;;
27213;SDS011;14723;55.814;37.460;2023-07-20T14:47:53;5.70;;;1.73;;
27213;SDS011;14723;55.814;37.460;2023-07-20T14:50:59;5.38;;;1.63;;
27213;SDS011;14723;55.814;37.460;2023-07-20T14:54:09;1.77;;;1.60;;
27213;SDS011;14723;55.814;37.460;2023-07-20T14:57:14;2.70;;;1.80;;
27213;SDS011;14723;55.814;37.460;2023-07-20T15:00:20;2.92;;;1.60;;
27213;SDS011;14723;55.814;37.460;2023-07-20T15:03:26;2.20;;;1.17;;
27213;SDS011;14723;55.814;37.460;2023-07-20T15:06:33;5.25;;;1.30;;
27213;SDS011;14723;55.814;37.460;2023-07-20T15:09:41;2.13;;;1.50;;
27213;SDS011;14723;55.814;37.460;2023-07-20T15:12:47;6.60;;;2.20;;
27213;SDS011;14723;55.814;37.460;2023-07-20T15:15:53;4.40;;;1.67;;
27213;SDS011;14723;55.814;37.460;2023-07-20T15:18:59;4.00;;;1.52;;
27213;SDS011;14723;55.814;37.460;2023-07-20T15:22:05;4.07;;;1.63;;
27213;SDS011;14723;55.814;37.460;2023-07-20T15:25:14;8.52;;;1.45;;
27213;SDS011;14723;55.814;37.460;2023-07-20T15:28:19;3.30;;;1.52;;
27213;SDS011;14723;55.814;37.460;2023-07-20T15:31:25;5.03;;;1.52;;
27213;SDS011;14723;55.814;37.460;2023-07-20T15:34:33;5.22;;;1.63;;
27213;SDS011;14723;55.814;37.460;2023-07-20T15:37:39;2.35;;;1.60;;
27213;SDS011;14723;55.814;37.460;2023-07-20T15:40:47;6.38;;;1.90;;
27213;SDS011;14723;55.814;37.460;2023-07-20T15:43:53;5.22;;;1.48;;
27213;SDS011;14723;55.814;37.460;2023-07-20T15:46:58;5.18;;;1.55;;
27213;SDS011;14723;55.814;37.460;2023-07-20T15:50:04;2.55;;;1.20;;
27213;SDS011;14723;55.814;37.460;2023-07-20T15:53:09;4.88;;;1.58;;
27213;SDS011;14723;55.814;37.460;2023-07-20T15:56:17;4.05;;;1.30;;
27213;SDS011;14723;55.814;37.460;2023-07-20T15:59:23;4.63;;;1.80;;
27213;SDS011;14723;55.814;37.460;2023-07-20T16:02:28;2.22;;;1.70;;
27213;SDS011;14723;55.814;37.460;2023-07-20T16:05:34;3.80;;;1.58;;
27213;SDS011;14723;55.814;37.460;2023-07-20T16:08:39;4.85;;;1.45;;
27213;SDS011;14723;55.814;37.460;2023-07-20T16:11:47;6.93;;;2.13;;
27213;SDS011;14723;55.814;37.460;2023-07-20T16:14:53;2.10;;;1.30;;
27213;SDS011;14723;55.814;37.460;2023-07-20T16:21:06;4.22;;;1.90;;
27213;SDS011;14723;55.814;37.460;2023-07-20T16:24:11;2.45;;;1.33;;
27213;SDS011;14723;55.814;37.460;2023-07-20T16:27:21;2.10;;;1.33;;
27213;SDS011;14723;55.814;37.460;2023-07-20T16:30:27;3.13;;;1.33;;
27213;SDS011;14723;55.814;37.460;2023-07-20T16:33:32;5.30;;;1.58;;
27213;SDS011;14723;55.814;37.460;2023-07-20T16:36:46;4.90;;;1.58;;
27213;SDS011;14723;55.814;37.460;2023-07-20T16:39:54;6.15;;;2.17;;
27213;SDS011;14723;55.814;37.460;2023-07-20T16:43:02;4.13;;;1.63;;
27213;SDS011;14723;55.814;37.460;2023-07-20T16:49:15;4.40;;;1.85;;
27213;SDS011;14723;55.814;37.460;2023-07-20T16:52:21;4.10;;;1.42;;
27213;SDS011;14723;55.814;37.460;2023-07-20T16:55:26;3.30;;;1.48;;
27213;SDS011;14723;55.814;37.460;2023-07-20T16:58:34;3.47;;;1.77;;
27213;SDS011;14723;55.814;37.460;2023-07-20T17:01:39;7.35;;;2.13;;
27213;SDS011;14723;55.814;37.460;2023-07-20T17:04:47;1.93;;;1.73;;
27213;SDS011;14723;55.814;37.460;2023-07-20T17:07:52;4.18;;;1.52;;
27213;SDS011;14723;55.814;37.460;2023-07-20T17:10:58;3.35;;;1.50;;
27213;SDS011;14723;55.814;37.460;2023-07-20T17:14:08;3.28;;;1.60;;
27213;SDS011;14723;55.814;37.460;2023-07-20T17:17:13;4.20;;;1.67;;
27213;SDS011;14723;55.814;37.460;2023-07-20T17:20:19;4.30;;;1.95;;
27213;SDS011;14723;55.814;37.460;2023-07-20T17:23:28;4.15;;;1.90;;
27213;SDS011;14723;55.814;37.460;2023-07-20T17:26:38;6.60;;;1.88;;
27213;SDS011;14723;55.814;37.460;2023-07-20T17:29:47;5.05;;;2.28;;
27213;SDS011;14723;55.814;37.460;2023-07-20T17:32:53;5.88;;;2.00;;
27213;SDS011;14723;55.814;37.460;2023-07-20T17:35:58;3.67;;;2.22;;
27213;SDS011;14723;55.814;37.460;2023-07-20T17:39:06;4.95;;;2.20;;
27213;SDS011;14723;55.814;37.460;2023-07-20T17:42:12;4.82;;;2.90;;
27213;SDS011;14723;55.814;37.460;2023-07-20T17:45:23;4.47;;;2.33;;
27213;SDS011;14723;55.814;37.460;2023-07-20T17:48:28;4.97;;;2.15;;
27213;SDS011;14723;55.814;37.460;2023-07-20T17:51:34;5.93;;;2.28;;
27213;SDS011;14723;55.814;37.460;2023-07-20T17:54:39;3.75;;;2.30;;
27213;SDS011;14723;55.814;37.460;2023-07-20T17:57:45;4.95;;;2.55;;
27213;SDS011;14723;55.814;37.460;2023-07-20T18:00:53;8.18;;;2.58;;
27213;SDS011;14723;55.814;37.460;2023-07-20T18:03:58;9.48;;;2.03;;
27213;SDS011;14723;55.814;37.460;2023-07-20T18:07:04;3.95;;;2.13;;
27213;SDS011;14723;55.814;37.460;2023-07-20T18:10:10;7.38;;;2.45;;
27213;SDS011;14723;55.814;37.460;2023-07-20T18:13:16;7.53;;;2.15;;
27213;SDS011;14723;55.814;37.460;2023-07-20T18:16:23;3.90;;;2.20;;
27213;SDS011;14723;55.814;37.460;2023-07-20T18:22:34;7.00;;;4.00;;
27213;SDS011;14723;55.814;37.460;2023-07-20T18:25:41;7.57;;;2.72;;
27213;SDS011;14723;55.814;37.460;2023-07-20T18:28:47;3.00;;;2.20;;
27213;SDS011;14723;55.814;37.460;2023-07-20T18:31:55;6.47;;;2.15;;
27213;SDS011;14723;55.814;37.460;2023-07-20T18:35:00;8.45;;;3.60;;
27213;SDS011;14723;55.814;37.460;2023-07-20T18:38:07;4.07;;;2.33;;
27213;SDS011;14723;55.814;37.460;2023-07-20T18:41:15;4.40;;;2.70;;
27213;SDS011;14723;55.814;37.460;2023-07-20T18:44:25;9.90;;;2.60;;
27213;SDS011;14723;55.814;37.460;2023-07-20T18:47:32;11.43;;;3.15;;
27213;SDS011;14723;55.814;37.460;2023-07-20T18:50:38;9.95;;;3.33;;
27213;SDS011;14723;55.814;37.460;2023-07-20T18:53:43;6.93;;;2.75;;
27213;SDS011;14723;55.814;37.460;2023-07-20T18:56:49;6.95;;;2.70;;
27213;SDS011;14723;55.814;37.460;2023-07-20T18:59:54;4.90;;;2.22;;
27213;SDS011;14723;55.814;37.460;2023-07-20T19:03:02;6.82;;;2.47;;
27213;SDS011;14723;55.814;37.460;2023-07-20T19:06:07;9.63;;;3.83;;
27213;SDS011;14723;55.814;37.460;2023-07-20T19:09:13;8.00;;;2.92;;
27213;SDS011;14723;55.814;37.460;2023-07-20T19:12:18;6.80;;;3.28;;
27213;SDS011;14723;55.814;37.460;2023-07-20T19:15:24;5.03;;;2.80;;